Time;durP1;ratioP1;P1;durP2;ratioP2;P2;SDS_P1;SDS_P2;PMS_P1;PMS_P2;Temp;Humidity;BMP_temperature;BMP_pressure;BME280_temperature;BME280_humidity;BME280_pressure;Samples;Min_cycle;Max_cycle;Signal;HPM_P1;HPM_P2
2023/10/09 00:01:01;;;;;;;4.03;3.07;;;;;;;;;;5036037;28;20485;-81
2023/10/09 00:03:29;;;;;;;7.37;3.47;;;;;;;;;;5034097;28;20443;-81
2023/10/09 00:05:57;;;;;;;8.53;4.57;;;;;;;;;;5036003;28;20820;-81
2023/10/09 00:08:30;;;;;;;7.00;3.90;;;;;;;;;;5035515;28;20868;-82
2023/10/09 00:10:57;;;;;;;13.60;4.10;;;;;;;;;;5036391;28;20526;-82
2023/10/09 00:13:32;;;;;;;11.10;4.07;;;;;;;;;;5035697;28;20857;-82
2023/10/09 00:16:14;;;;;;;4.50;3.90;;;;;;;;;;5035685;28;20407;-83
2023/10/09 00:18:46;;;;;;;8.57;4.00;;;;;;;;;;5036339;28;20483;-82
2023/10/09 00:21:20;;;;;;;8.93;3.87;;;;;;;;;;5035961;28;20400;-81
2023/10/09 00:23:52;;;;;;;8.17;3.60;;;;;;;;;;5035171;28;20526;-82
2023/10/09 00:26:19;;;;;;;5.77;4.20;;;;;;;;;;5035986;28;20439;-81
2023/10/09 00:28:47;;;;;;;9.87;4.30;;;;;;;;;;5035094;28;20471;-81
2023/10/09 00:31:15;;;;;;;5.57;4.27;;;;;;;;;;5035575;28;20419;-82
2023/10/09 00:33:42;;;;;;;5.97;4.80;;;;;;;;;;5035275;28;20451;-81
2023/10/09 00:36:10;;;;;;;7.03;4.03;;;;;;;;;;5035905;28;20516;-82
2023/10/09 00:38:38;;;;;;;7.53;3.63;;;;;;;;;;5034927;28;20444;-82
2023/10/09 00:41:10;;;;;;;9.03;4.13;;;;;;;;;;5034947;28;20954;-82
2023/10/09 00:43:37;;;;;;;6.87;3.40;;;;;;;;;;5034915;28;20498;-81
2023/10/09 00:46:08;;;;;;;6.33;3.60;;;;;;;;;;5034813;28;20502;-81
2023/10/09 00:48:40;;;;;;;11.70;3.93;;;;;;;;;;5034674;28;20507;-81
2023/10/09 00:51:15;;;;;;;9.73;4.43;;;;;;;;;;5035462;28;20421;-81
2023/10/09 00:53:42;;;;;;;8.50;4.50;;;;;;;;;;5034575;28;20534;-82
2023/10/09 00:56:18;;;;;;;9.73;4.33;;;;;;;;;;5035081;28;20415;-81
2023/10/09 00:58:46;;;;;;;15.77;4.30;;;;;;;;;;5034803;28;20468;-81
2023/10/09 01:01:15;;;;;;;10.90;5.00;;;;;;;;;;5033435;28;20829;-81
2023/10/09 01:03:43;;;;;;;11.27;4.70;;;;;;;;;;5034318;28;20459;-82
2023/10/09 01:06:20;;;;;;;8.90;4.63;;;;;;;;;;5034972;28;20449;-82
2023/10/09 01:08:56;;;;;;;13.00;4.73;;;;;;;;;;5034028;28;20570;-81
2023/10/09 01:11:23;;;;;;;8.33;4.00;;;;;;;;;;5034895;28;20421;-81
2023/10/09 01:14:00;;;;;;;6.10;4.00;;;;;;;;;;5033021;28;20480;-81
2023/10/09 01:16:26;;;;;;;8.60;4.90;;;;;;;;;;5034793;28;20792;-81
2023/10/09 01:18:57;;;;;;;8.70;4.90;;;;;;;;;;5032870;28;20436;-81
2023/10/09 01:21:24;;;;;;;6.80;4.10;;;;;;;;;;5034840;28;20402;-82
2023/10/09 01:24:08;;;;;;;9.33;4.33;;;;;;;;;;5032732;28;20450;-81
2023/10/09 01:26:39;;;;;;;3.97;3.57;;;;;;;;;;5034331;28;20886;-81
2023/10/09 01:29:10;;;;;;;6.30;4.60;;;;;;;;;;5033942;28;20458;-81
2023/10/09 01:31:37;;;;;;;9.00;5.20;;;;;;;;;;5034566;28;20403;-81
2023/10/09 01:34:09;;;;;;;8.63;4.10;;;;;;;;;;5033831;28;20476;-81
2023/10/09 01:36:38;;;;;;;10.43;5.33;;;;;;;;;;5033903;28;20881;-82
2023/10/09 01:39:10;;;;;;;5.57;4.50;;;;;;;;;;5033554;28;20838;-81
2023/10/09 01:41:45;;;;;;;7.70;4.43;;;;;;;;;;5034477;28;20400;-82
2023/10/09 01:44:12;;;;;;;10.77;4.43;;;;;;;;;;5031456;28;20953;-81
2023/10/09 01:46:38;;;;;;;12.17;4.67;;;;;;;;;;5034405;28;20446;-81
2023/10/09 01:49:13;;;;;;;9.50;4.47;;;;;;;;;;5033742;28;20558;-81
2023/10/09 01:51:40;;;;;;;9.70;5.63;;;;;;;;;;5034107;28;20566;-82
2023/10/09 01:54:07;;;;;;;6.10;4.43;;;;;;;;;;5033693;28;20504;-82
2023/10/09 01:56:37;;;;;;;8.93;5.20;;;;;;;;;;5034226;28;20799;-82
2023/10/09 01:59:05;;;;;;;7.80;4.60;;;;;;;;;;5032663;28;20518;-82
2023/10/09 02:01:40;;;;;;;7.40;5.70;;;;;;;;;;5032519;28;20518;-81
2023/10/09 02:04:13;;;;;;;10.03;5.23;;;;;;;;;;5033024;28;20507;-81
2023/10/09 02:06:40;;;;;;;9.03;5.30;;;;;;;;;;5032851;28;20449;-81
2023/10/09 02:09:08;;;;;;;7.00;5.40;;;;;;;;;;5033905;28;20452;-82
2023/10/09 02:11:37;;;;;;;11.90;6.33;;;;;;;;;;5033973;28;20845;-81
2023/10/09 02:14:15;;;;;;;7.33;6.63;;;;;;;;;;5033395;28;20458;-81
2023/10/09 02:16:42;;;;;;;15.20;5.83;;;;;;;;;;5033764;28;20417;-81
2023/10/09 02:19:28;;;;;;;6.80;5.03;;;;;;;;;;5034732;28;20467;-81
2023/10/09 02:21:56;;;;;;;10.77;5.43;;;;;;;;;;5037909;28;20467;-82
2023/10/09 02:24:49;;;;;;;12.07;5.90;;;;;;;;;;5037753;28;20513;-81
2023/10/09 02:27:19;;;;;;;6.00;5.00;;;;;;;;;;5036823;28;20439;-81
2023/10/09 02:29:47;;;;;;;7.73;5.60;;;;;;;;;;5037996;28;20403;-82
2023/10/09 02:32:25;;;;;;;9.87;5.23;;;;;;;;;;5019776;28;20468;-82
2023/10/09 02:34:53;;;;;;;13.90;5.30;;;;;;;;;;5037730;28;20434;-81
2023/10/09 02:37:23;;;;;;;10.67;5.77;;;;;;;;;;5037343;28;20471;-82
2023/10/09 02:39:52;;;;;;;9.47;5.60;;;;;;;;;;5037815;28;20436;-81
2023/10/09 02:42:23;;;;;;;10.97;6.70;;;;;;;;;;5037055;28;20451;-82
2023/10/09 02:44:51;;;;;;;6.57;5.60;;;;;;;;;;5035892;28;20871;-81
2023/10/09 02:47:20;;;;;;;11.47;6.07;;;;;;;;;;5037209;28;20476;-82
2023/10/09 02:49:48;;;;;;;8.57;5.77;;;;;;;;;;5037132;28;21044;-81
2023/10/09 02:52:18;;;;;;;8.53;5.10;;;;;;;;;;5035817;28;20578;-81
2023/10/09 02:54:47;;;;;;;13.90;6.87;;;;;;;;;;5037055;28;20963;-82
2023/10/09 02:57:22;;;;;;;13.10;6.27;;;;;;;;;;5036877;28;20458;-81
2023/10/09 02:59:51;;;;;;;12.13;5.70;;;;;;;;;;5037396;28;20422;-82
2023/10/09 03:02:17;;;;;;;10.17;6.30;;;;;;;;;;5036746;28;20447;-81
2023/10/09 03:04:44;;;;;;;8.07;5.87;;;;;;;;;;5035602;28;20473;-81
2023/10/09 03:07:13;;;;;;;10.83;5.60;;;;;;;;;;5036342;28;20457;-82
2023/10/09 03:09:40;;;;;;;13.23;7.60;;;;;;;;;;5036920;28;20490;-82
2023/10/09 03:12:09;;;;;;;12.50;5.90;;;;;;;;;;5036780;28;20441;-82
2023/10/09 03:14:41;;;;;;;14.10;5.90;;;;;;;;;;5036636;28;20464;-81
2023/10/09 03:17:11;;;;;;;8.03;6.07;;;;;;;;;;5036601;28;20457;-81
2023/10/09 03:19:38;;;;;;;7.20;6.50;;;;;;;;;;5037382;28;20452;-81
2023/10/09 03:22:09;;;;;;;10.80;5.70;;;;;;;;;;5036398;28;20951;-82
2023/10/09 03:24:35;;;;;;;9.87;6.40;;;;;;;;;;5036214;28;20469;-81
2023/10/09 03:27:01;;;;;;;12.27;7.87;;;;;;;;;;5036244;28;20459;-82
2023/10/09 03:29:28;;;;;;;9.60;6.10;;;;;;;;;;5036778;28;20552;-82
2023/10/09 03:31:56;;;;;;;11.67;7.50;;;;;;;;;;5035264;28;20919;-81
2023/10/09 03:34:23;;;;;;;8.83;6.63;;;;;;;;;;5037000;28;20530;-82
2023/10/09 03:36:59;;;;;;;8.60;5.90;;;;;;;;;;5036743;28;20473;-81
2023/10/09 03:39:34;;;;;;;10.40;6.60;;;;;;;;;;5037356;28;20873;-81
2023/10/09 03:42:04;;;;;;;17.33;7.07;;;;;;;;;;5037852;28;20907;-81
2023/10/09 03:44:33;;;;;;;11.60;7.00;;;;;;;;;;5038182;28;20435;-82
2023/10/09 03:47:01;;;;;;;12.40;6.87;;;;;;;;;;5036741;28;20448;-81
2023/10/09 03:49:29;;;;;;;10.37;7.10;;;;;;;;;;5037150;28;20984;-81
2023/10/09 03:51:55;;;;;;;12.10;7.63;;;;;;;;;;5030174;28;20441;-81
2023/10/09 03:54:22;;;;;;;10.83;6.30;;;;;;;;;;5052730;28;20439;-81
2023/10/09 03:56:49;;;;;;;10.13;7.40;;;;;;;;;;5037763;28;20970;-82
2023/10/09 03:59:16;;;;;;;20.13;8.97;;;;;;;;;;5038128;28;20441;-81
2023/10/09 04:01:43;;;;;;;12.07;7.20;;;;;;;;;;5038215;28;20461;-82
2023/10/09 04:04:14;;;;;;;13.10;8.47;;;;;;;;;;5037705;28;20963;-81
2023/10/09 04:06:40;;;;;;;17.83;7.53;;;;;;;;;;5037293;28;20854;-82
2023/10/09 04:09:27;;;;;;;10.83;7.00;;;;;;;;;;5036488;28;20481;-81
2023/10/09 04:12:17;;;;;;;12.17;8.93;;;;;;;;;;5035628;28;20434;-81
2023/10/09 04:14:53;;;;;;;15.70;7.83;;;;;;;;;;5035998;28;20443;-82
2023/10/09 04:17:35;;;;;;;16.00;8.37;;;;;;;;;;5036097;28;20462;-82
2023/10/09 04:23:04;;;;;;;10.73;7.40;;;;;;;;;;5035012;28;20829;-82
2023/10/09 04:25:41;;;;;;;11.60;8.40;;;;;;;;;;5036036;28;20487;-81
2023/10/09 04:28:09;;;;;;;10.83;8.43;;;;;;;;;;5035343;28;20472;-82
2023/10/09 04:30:40;;;;;;;12.77;8.70;;;;;;;;;;5036218;28;20454;-81
2023/10/09 04:33:11;;;;;;;13.63;8.53;;;;;;;;;;5034987;28;20473;-81
2023/10/09 04:35:41;;;;;;;14.20;8.83;;;;;;;;;;5035632;28;20895;-82
2023/10/09 04:38:07;;;;;;;17.83;9.33;;;;;;;;;;5035485;28;20468;-82
2023/10/09 04:40:51;;;;;;;12.50;8.37;;;;;;;;;;5037812;28;20459;-82
2023/10/09 04:43:20;;;;;;;14.47;10.30;;;;;;;;;;5035700;28;20473;-81
2023/10/09 04:48:37;;;;;;;14.50;9.83;;;;;;;;;;5033300;28;20475;-81
2023/10/09 04:51:34;;;;;;;18.70;11.50;;;;;;;;;;5034460;28;20950;-81
2023/10/09 04:54:12;;;;;;;20.73;12.53;;;;;;;;;;5034127;28;20560;-81
2023/10/09 04:56:51;;;;;;;14.60;10.97;;;;;;;;;;5034577;28;20403;-81
2023/10/09 04:59:18;;;;;;;21.27;11.30;;;;;;;;;;5032858;28;20415;-81
2023/10/09 05:01:57;;;;;;;19.23;12.20;;;;;;;;;;5033748;28;20446;-82
2023/10/09 05:04:39;;;;;;;16.00;10.73;;;;;;;;;;5034288;28;20435;-81
2023/10/09 05:07:22;;;;;;;25.90;12.00;;;;;;;;;;5033772;28;20450;-81
2023/10/09 05:10:24;;;;;;;22.90;14.67;;;;;;;;;;5034313;28;20460;-81
2023/10/09 05:12:56;;;;;;;25.63;13.23;;;;;;;;;;5033701;28;20488;-81
2023/10/09 05:15:26;;;;;;;30.23;15.23;;;;;;;;;;5034248;28;20431;-81
2023/10/09 05:17:56;;;;;;;32.37;15.90;;;;;;;;;;5033950;28;20443;-81
2023/10/09 05:20:55;;;;;;;32.57;15.90;;;;;;;;;;5034049;28;20415;-81
2023/10/09 05:23:26;;;;;;;26.80;14.77;;;;;;;;;;5032219;28;20531;-81
2023/10/09 05:25:55;;;;;;;32.80;17.40;;;;;;;;;;5034122;28;20396;-82
2023/10/09 05:28:48;;;;;;;35.20;17.17;;;;;;;;;;5032538;28;20474;-81
2023/10/09 05:31:44;;;;;;;35.00;16.60;;;;;;;;;;5033212;28;20974;-81
2023/10/09 05:34:01;;;;;;;34.20;19.17;;;;;;;;;;5031509;28;20846;-81
2023/10/09 05:36:35;;;;;;;32.70;18.00;;;;;;;;;;5033516;28;20444;-81
2023/10/09 05:39:22;;;;;;;33.50;18.70;;;;;;;;;;5032095;28;20552;-81
2023/10/09 05:41:52;;;;;;;33.70;19.37;;;;;;;;;;5033310;28;20503;-81
2023/10/09 05:50:33;;;;;;;43.87;23.97;;;;;;;;;;5032693;28;20534;-82
2023/10/09 05:53:05;;;;;;;61.67;23.37;;;;;;;;;;5033043;28;20444;-82
2023/10/09 06:02:17;;;;;;;58.73;25.03;;;;;;;;;;5033815;28;20388;-82
2023/10/09 06:03:54;;;;;;;63.13;26.17;;;;;;;;;;5033238;28;20496;-81
2023/10/09 06:06:36;;;;;;;49.83;22.90;;;;;;;;;;5034214;28;20478;-82
2023/10/09 06:12:32;;;;;;;57.30;27.40;;;;;;;;;;5033269;28;20408;-83
2023/10/09 06:14:57;;;;;;;59.70;28.63;;;;;;;;;;5033665;28;20431;-81
2023/10/09 06:17:26;;;;;;;63.10;29.40;;;;;;;;;;5033558;28;20514;-82
2023/10/09 06:19:58;;;;;;;56.93;26.80;;;;;;;;;;5033843;28;20534;-80
2023/10/09 06:25:11;;;;;;;63.07;29.33;;;;;;;;;;5033823;28;20419;-84
2023/10/09 06:28:01;;;;;;;64.00;29.10;;;;;;;;;;5033039;28;20443;-81
2023/10/09 06:30:28;;;;;;;67.43;30.33;;;;;;;;;;5033859;28;20446;-83
2023/10/09 06:33:19;;;;;;;78.77;32.97;;;;;;;;;;5032081;28;20836;-82
2023/10/09 06:35:53;;;;;;;62.30;31.10;;;;;;;;;;5032832;28;20408;-82
2023/10/09 06:38:22;;;;;;;69.87;33.07;;;;;;;;;;5033288;28;20446;-81
2023/10/09 06:43:47;;;;;;;75.97;33.77;;;;;;;;;;5033075;28;20517;-81
2023/10/09 06:48:59;;;;;;;77.97;34.87;;;;;;;;;;5031706;28;20459;-80
2023/10/09 06:51:41;;;;;;;68.27;35.60;;;;;;;;;;5033524;28;20415;-80
2023/10/09 06:54:15;;;;;;;65.03;36.07;;;;;;;;;;5033105;28;20445;-80
2023/10/09 06:59:41;;;;;;;75.07;33.27;;;;;;;;;;5032299;28;20404;-80
2023/10/09 07:05:10;;;;;;;75.30;35.00;;;;;;;;;;5017658;28;20453;-80
2023/10/09 07:07:41;;;;;;;67.33;36.33;;;;;;;;;;5035164;28;20474;-83
2023/10/09 07:12:58;;;;;;;69.80;36.07;;;;;;;;;;5036479;28;20480;-81
2023/10/09 07:18:40;;;;;;;75.30;37.63;;;;;;;;;;5036628;28;20450;-79
2023/10/09 07:21:11;;;;;;;70.87;35.90;;;;;;;;;;5037104;28;20407;-80
2023/10/09 07:23:47;;;;;;;82.37;38.43;;;;;;;;;;5034599;28;20548;-81
2023/10/09 07:26:36;;;;;;;71.37;37.90;;;;;;;;;;5036390;28;20903;-80
2023/10/09 07:29:16;;;;;;;79.87;37.23;;;;;;;;;;5032351;28;20485;-82
2023/10/09 07:31:45;;;;;;;76.20;35.60;;;;;;;;;;5036376;28;20540;-79
2023/10/09 07:36:57;;;;;;;75.83;38.83;;;;;;;;;;5036379;28;20756;-80
2023/10/09 07:39:24;;;;;;;71.70;37.07;;;;;;;;;;5036025;28;20506;-79
2023/10/09 07:42:15;;;;;;;69.93;37.77;;;;;;;;;;5036336;28;20515;-79
2023/10/09 07:44:42;;;;;;;77.00;35.23;;;;;;;;;;5035477;28;21154;-80
2023/10/09 07:47:22;;;;;;;72.43;35.60;;;;;;;;;;5036446;28;20444;-83
2023/10/09 07:49:59;;;;;;;73.60;36.83;;;;;;;;;;5034636;28;20455;-83
2023/10/09 07:52:26;;;;;;;74.50;35.47;;;;;;;;;;5035975;28;21032;-82
2023/10/09 07:55:01;;;;;;;69.77;38.70;;;;;;;;;;5036288;28;20451;-81
2023/10/09 07:57:28;;;;;;;72.47;36.57;;;;;;;;;;5036151;28;20457;-82
2023/10/09 08:00:12;;;;;;;73.00;34.47;;;;;;;;;;5036115;28;20473;-81
2023/10/09 08:02:39;;;;;;;57.00;32.10;;;;;;;;;;5034953;28;20449;-80
2023/10/09 08:05:18;;;;;;;75.13;37.10;;;;;;;;;;5035910;28;20451;-80
2023/10/09 08:07:54;;;;;;;68.37;33.30;;;;;;;;;;5036048;28;20436;-82
2023/10/09 08:15:52;;;;;;;64.50;34.30;;;;;;;;;;5035602;28;20439;-83
2023/10/09 08:18:27;;;;;;;64.57;34.80;;;;;;;;;;5035788;28;20480;-83
2023/10/09 08:23:48;;;;;;;60.30;33.30;;;;;;;;;;5034975;28;20501;-82
2023/10/09 08:26:14;;;;;;;71.77;35.87;;;;;;;;;;5034809;28;20479;-83
2023/10/09 08:28:42;;;;;;;61.50;32.43;;;;;;;;;;5035782;28;20441;-80
2023/10/09 08:31:18;;;;;;;68.60;33.97;;;;;;;;;;5033802;28;20990;-81
2023/10/09 08:33:56;;;;;;;60.00;33.00;;;;;;;;;;5035397;28;20467;-81
2023/10/09 08:36:28;;;;;;;66.60;35.00;;;;;;;;;;5034902;28;20443;-80
2023/10/09 08:38:58;;;;;;;62.33;33.77;;;;;;;;;;5035202;28;21005;-79
2023/10/09 08:41:25;;;;;;;69.97;33.77;;;;;;;;;;5034944;28;20805;-79
2023/10/09 08:43:53;;;;;;;57.93;32.57;;;;;;;;;;5034160;28;20456;-79
2023/10/09 08:46:26;;;;;;;64.80;34.20;;;;;;;;;;5034498;28;20447;-80
2023/10/09 08:48:55;;;;;;;77.23;34.10;;;;;;;;;;5035345;28;20771;-80
2023/10/09 08:51:22;;;;;;;66.43;32.50;;;;;;;;;;5034485;28;20540;-79
2023/10/09 08:53:49;;;;;;;56.73;31.97;;;;;;;;;;5035231;28;20439;-82
2023/10/09 08:56:21;;;;;;;65.57;32.73;;;;;;;;;;5034459;28;20457;-79
2023/10/09 08:58:48;;;;;;;54.70;31.37;;;;;;;;;;5035218;28;20773;-81
2023/10/09 09:01:17;;;;;;;59.97;32.67;;;;;;;;;;5034189;28;20975;-79
2023/10/09 09:03:44;;;;;;;57.50;32.20;;;;;;;;;;5034515;28;20439;-80
2023/10/09 09:06:14;;;;;;;52.90;31.23;;;;;;;;;;5034396;28;20522;-79
2023/10/09 09:08:44;;;;;;;62.10;31.73;;;;;;;;;;5033616;28;20581;-80
2023/10/09 09:11:17;;;;;;;65.07;33.30;;;;;;;;;;5033419;28;20447;-81
2023/10/09 09:13:48;;;;;;;63.90;32.87;;;;;;;;;;5033492;28;20461;-81
2023/10/09 09:16:18;;;;;;;58.43;31.77;;;;;;;;;;5032903;28;21002;-80
2023/10/09 09:18:57;;;;;;;55.73;33.03;;;;;;;;;;5034854;28;20408;-80
2023/10/09 09:21:27;;;;;;;64.87;33.80;;;;;;;;;;5034572;28;20530;-80
2023/10/09 09:23:55;;;;;;;62.10;29.77;;;;;;;;;;5034725;28;20865;-81
2023/10/09 09:26:36;;;;;;;63.57;31.60;;;;;;;;;;5032939;28;20468;-80
2023/10/09 09:29:03;;;;;;;53.87;30.80;;;;;;;;;;5033740;28;20457;-81
2023/10/09 09:31:37;;;;;;;56.97;30.57;;;;;;;;;;5034240;28;20481;-81
2023/10/09 09:34:08;;;;;;;55.17;30.13;;;;;;;;;;5034405;28;20464;-79
2023/10/09 09:36:37;;;;;;;58.83;29.43;;;;;;;;;;5034441;28;20423;-79
2023/10/09 09:39:18;;;;;;;46.90;27.97;;;;;;;;;;5034668;28;20448;-79
2023/10/09 09:41:45;;;;;;;51.60;28.67;;;;;;;;;;5033507;28;20438;-81
2023/10/09 09:44:17;;;;;;;52.53;30.27;;;;;;;;;;5032546;28;20464;-81
2023/10/09 09:46:46;;;;;;;56.53;27.40;;;;;;;;;;5034032;28;20429;-79
2023/10/09 09:49:16;;;;;;;41.50;26.10;;;;;;;;;;5034152;28;20487;-79
2023/10/09 09:51:46;;;;;;;46.60;26.40;;;;;;;;;;5034201;28;20425;-79
2023/10/09 09:54:15;;;;;;;48.23;25.10;;;;;;;;;;5033417;28;21006;-80
2023/10/09 09:56:44;;;;;;;49.70;23.07;;;;;;;;;;5034337;28;20415;-79
2023/10/09 09:59:13;;;;;;;43.53;26.70;;;;;;;;;;5033778;28;20441;-79
2023/10/09 10:01:41;;;;;;;49.13;25.17;;;;;;;;;;5033573;28;20823;-80
2023/10/09 10:04:13;;;;;;;40.53;25.13;;;;;;;;;;5033327;28;20471;-79
2023/10/09 10:06:44;;;;;;;44.40;25.83;;;;;;;;;;5034110;28;20923;-80
2023/10/09 10:09:38;;;;;;;44.03;25.20;;;;;;;;;;5033951;28;20768;-79
2023/10/09 10:12:09;;;;;;;38.07;25.97;;;;;;;;;;5034125;28;20429;-79
2023/10/09 10:14:52;;;;;;;39.30;24.23;;;;;;;;;;5033031;28;20478;-80
2023/10/09 10:17:20;;;;;;;48.70;25.10;;;;;;;;;;5032910;28;20425;-81
2023/10/09 10:20:25;;;;;;;42.33;24.00;;;;;;;;;;5033402;28;20556;-81
2023/10/09 10:22:48;;;;;;;44.83;24.80;;;;;;;;;;5033561;28;20808;-81
2023/10/09 10:25:32;;;;;;;38.80;25.33;;;;;;;;;;5033055;28;20998;-81
2023/10/09 10:28:13;;;;;;;41.00;24.13;;;;;;;;;;5034021;28;20423;-80
2023/10/09 10:30:46;;;;;;;39.93;23.10;;;;;;;;;;5033016;28;20468;-80
2023/10/09 10:33:15;;;;;;;43.33;23.03;;;;;;;;;;5032117;28;20423;-79
2023/10/09 10:35:52;;;;;;;37.53;20.77;;;;;;;;;;5031690;28;20472;-80
2023/10/09 10:38:26;;;;;;;38.23;24.70;;;;;;;;;;5033274;28;20832;-80
2023/10/09 10:40:59;;;;;;;37.33;22.20;;;;;;;;;;5036483;28;20467;-80
2023/10/09 10:43:33;;;;;;;40.50;22.50;;;;;;;;;;5038446;28;20551;-83
2023/10/09 10:46:13;;;;;;;34.77;20.97;;;;;;;;;;5036476;28;20463;-80
2023/10/09 10:48:46;;;;;;;41.13;23.70;;;;;;;;;;5037755;28;20402;-80
2023/10/09 10:51:15;;;;;;;31.63;20.40;;;;;;;;;;5037476;28;20873;-81
2023/10/09 10:53:52;;;;;;;29.57;20.07;;;;;;;;;;5036391;28;20471;-81
2023/10/09 10:56:18;;;;;;;30.73;21.70;;;;;;;;;;5036078;28;20495;-80
2023/10/09 10:59:11;;;;;;;32.70;19.17;;;;;;;;;;5020072;28;20469;-81
2023/10/09 11:01:57;;;;;;;32.17;18.37;;;;;;;;;;5037435;28;20524;-82
2023/10/09 11:04:38;;;;;;;26.80;17.63;;;;;;;;;;5037193;28;20475;-83
2023/10/09 11:07:09;;;;;;;29.30;18.10;;;;;;;;;;5037662;28;20423;-82
2023/10/09 11:09:57;;;;;;;22.60;16.07;;;;;;;;;;5036388;28;20974;-81
2023/10/09 11:12:24;;;;;;;28.70;17.00;;;;;;;;;;5038390;28;20425;-81
2023/10/09 11:15:05;;;;;;;20.40;15.17;;;;;;;;;;5036061;28;20461;-81
2023/10/09 11:17:35;;;;;;;24.70;15.30;;;;;;;;;;5037610;28;20429;-81
2023/10/09 11:20:22;;;;;;;27.60;18.53;;;;;;;;;;5037282;28;20547;-81
2023/10/09 11:23:14;;;;;;;30.07;18.83;;;;;;;;;;5037336;28;20425;-80
2023/10/09 11:25:37;;;;;;;28.40;20.67;;;;;;;;;;5036379;28;20492;-82
2023/10/09 11:28:27;;;;;;;27.53;17.13;;;;;;;;;;5035918;28;20448;-81
2023/10/09 11:30:55;;;;;;;25.27;15.73;;;;;;;;;;5036826;28;20504;-81
2023/10/09 11:33:29;;;;;;;26.63;15.03;;;;;;;;;;5037454;28;20448;-81
2023/10/09 11:35:56;;;;;;;25.40;14.47;;;;;;;;;;5037173;28;20471;-80
2023/10/09 11:38:24;;;;;;;18.00;13.70;;;;;;;;;;5037680;28;20498;-81
2023/10/09 11:41:06;;;;;;;22.77;14.53;;;;;;;;;;5035895;28;20469;-81
2023/10/09 11:43:52;;;;;;;20.40;12.97;;;;;;;;;;5036808;28;20899;-82
2023/10/09 11:49:25;;;;;;;17.40;12.90;;;;;;;;;;5037431;28;20433;-81
2023/10/09 11:52:09;;;;;;;19.97;11.83;;;;;;;;;;5036631;28;20982;-81
2023/10/09 11:54:38;;;;;;;16.80;11.47;;;;;;;;;;5037308;28;20518;-82
2023/10/09 11:57:04;;;;;;;11.60;8.77;;;;;;;;;;5038629;28;20471;-83
2023/10/09 11:59:37;;;;;;;11.67;8.30;;;;;;;;;;5038188;28;20462;-81
2023/10/09 12:02:04;;;;;;;14.03;7.43;;;;;;;;;;5037364;28;20452;-80
2023/10/09 12:04:33;;;;;;;14.60;7.00;;;;;;;;;;5037637;28;20540;-84
2023/10/09 12:07:07;;;;;;;11.17;6.80;;;;;;;;;;5039332;28;20445;-83
2023/10/09 12:09:34;;;;;;;13.33;6.30;;;;;;;;;;5037710;28;20435;-82
2023/10/09 12:12:00;;;;;;;8.77;5.20;;;;;;;;;;5038149;28;20560;-82
2023/10/09 12:14:33;;;;;;;15.23;6.37;;;;;;;;;;5037536;28;20467;-83
2023/10/09 12:17:05;;;;;;;7.73;5.70;;;;;;;;;;5037191;28;20461;-82
2023/10/09 12:19:33;;;;;;;10.50;5.70;;;;;;;;;;5037600;28;20464;-81
2023/10/09 12:22:01;;;;;;;9.70;5.30;;;;;;;;;;5036511;28;20947;-82
2023/10/09 12:24:29;;;;;;;13.50;6.70;;;;;;;;;;5038745;28;20471;-82
2023/10/09 12:26:55;;;;;;;10.87;5.83;;;;;;;;;;5036575;28;20445;-82
2023/10/09 12:29:21;;;;;;;13.87;6.50;;;;;;;;;;5035853;28;20438;-82
2023/10/09 12:31:48;;;;;;;14.47;6.67;;;;;;;;;;5035154;28;20990;-82
2023/10/09 12:34:16;;;;;;;12.83;6.03;;;;;;;;;;5034434;28;21120;-81
2023/10/09 12:36:45;;;;;;;8.40;6.23;;;;;;;;;;5036116;28;20437;-80
2023/10/09 12:39:18;;;;;;;11.57;5.77;;;;;;;;;;5036099;28;20444;-82
2023/10/09 12:41:44;;;;;;;17.53;6.47;;;;;;;;;;5035321;28;20448;-80
2023/10/09 12:44:14;;;;;;;8.90;5.37;;;;;;;;;;5035530;28;20464;-82
2023/10/09 12:46:41;;;;;;;13.73;5.67;;;;;;;;;;5034906;28;20915;-82
2023/10/09 12:49:07;;;;;;;13.07;4.73;;;;;;;;;;5034699;28;21003;-83
2023/10/09 12:51:34;;;;;;;18.83;5.00;;;;;;;;;;5034813;28;20565;-82
2023/10/09 12:54:02;;;;;;;12.07;4.87;;;;;;;;;;5035040;28;20461;-82
2023/10/09 12:56:34;;;;;;;15.20;5.70;;;;;;;;;;5034720;28;20473;-82
2023/10/09 12:59:01;;;;;;;12.80;5.00;;;;;;;;;;5035626;28;20903;-82
2023/10/09 13:01:31;;;;;;;15.50;6.07;;;;;;;;;;5034648;28;20473;-81
2023/10/09 13:03:59;;;;;;;8.80;5.47;;;;;;;;;;5034434;28;20507;-82
2023/10/09 13:06:26;;;;;;;15.17;5.83;;;;;;;;;;5034883;28;20560;-82
2023/10/09 13:08:52;;;;;;;11.83;4.40;;;;;;;;;;5033526;28;20788;-82
2023/10/09 13:11:21;;;;;;;15.30;5.63;;;;;;;;;;5034344;28;20488;-81
2023/10/09 13:13:50;;;;;;;10.13;4.10;;;;;;;;;;5035271;28;20456;-82
2023/10/09 13:16:23;;;;;;;9.10;5.60;;;;;;;;;;5034781;28;20477;-81
2023/10/09 13:18:53;;;;;;;10.83;5.00;;;;;;;;;;5036415;28;20431;-82
2023/10/09 13:21:20;;;;;;;10.07;5.40;;;;;;;;;;5037426;28;20469;-81
2023/10/09 13:23:49;;;;;;;10.07;4.67;;;;;;;;;;5035592;28;20461;-81
2023/10/09 13:26:19;;;;;;;15.03;5.53;;;;;;;;;;5033566;28;21024;-80
2023/10/09 13:28:48;;;;;;;9.63;5.23;;;;;;;;;;5035500;28;20440;-80
2023/10/09 13:31:15;;;;;;;7.47;4.30;;;;;;;;;;5034717;28;20485;-80
2023/10/09 13:33:42;;;;;;;13.10;4.60;;;;;;;;;;5034976;28;20555;-79
2023/10/09 13:36:16;;;;;;;10.40;4.20;;;;;;;;;;5034499;28;20473;-81
2023/10/09 13:38:43;;;;;;;5.30;3.97;;;;;;;;;;5033448;28;20476;-81
2023/10/09 13:41:12;;;;;;;14.70;5.10;;;;;;;;;;5032886;28;20499;-81
2023/10/09 13:43:40;;;;;;;10.13;4.63;;;;;;;;;;5034577;28;20452;-81
2023/10/09 13:46:09;;;;;;;10.27;5.00;;;;;;;;;;5034149;28;20495;-80
2023/10/09 13:48:38;;;;;;;10.00;4.60;;;;;;;;;;5034964;28;20437;-80
2023/10/09 13:51:07;;;;;;;15.20;4.30;;;;;;;;;;5033872;28;20504;-81
2023/10/09 13:53:35;;;;;;;7.20;4.70;;;;;;;;;;5037702;28;20983;-82
2023/10/09 13:56:02;;;;;;;9.37;4.00;;;;;;;;;;5034393;28;20475;-82
2023/10/09 13:58:29;;;;;;;10.67;4.90;;;;;;;;;;5033785;28;20942;-82
2023/10/09 14:00:56;;;;;;;9.13;4.50;;;;;;;;;;5034695;28;20465;-82
2023/10/09 14:03:27;;;;;;;4.73;4.00;;;;;;;;;;5033128;28;20472;-82
2023/10/09 14:05:56;;;;;;;10.97;5.00;;;;;;;;;;5034401;28;20480;-82
2023/10/09 14:08:23;;;;;;;13.23;5.10;;;;;;;;;;5034301;28;20437;-82
2023/10/09 14:10:50;;;;;;;7.40;4.63;;;;;;;;;;5033400;28;20473;-82
2023/10/09 14:13:17;;;;;;;15.53;4.40;;;;;;;;;;5034351;28;20440;-81
2023/10/09 14:15:45;;;;;;;6.50;4.10;;;;;;;;;;5032092;28;20555;-80
2023/10/09 14:18:12;;;;;;;9.20;3.80;;;;;;;;;;5033215;28;20411;-81
2023/10/09 14:20:41;;;;;;;12.43;4.70;;;;;;;;;;5033927;28;20476;-80
2023/10/09 14:23:08;;;;;;;8.70;3.40;;;;;;;;;;5034124;28;20444;-80
2023/10/09 14:25:37;;;;;;;15.00;3.97;;;;;;;;;;5032723;28;20465;-80
2023/10/09 14:28:07;;;;;;;12.27;3.53;;;;;;;;;;5034069;28;20473;-80
2023/10/09 14:30:41;;;;;;;6.37;2.87;;;;;;;;;;5033899;28;20468;-80
2023/10/09 14:33:12;;;;;;;6.67;2.80;;;;;;;;;;5034132;28;20970;-80
2023/10/09 14:35:39;;;;;;;7.90;3.00;;;;;;;;;;5033640;28;20479;-81
2023/10/09 14:38:11;;;;;;;6.33;2.73;;;;;;;;;;5033800;28;20437;-81
2023/10/09 14:40:41;;;;;;;12.37;3.67;;;;;;;;;;5034056;28;20555;-81
2023/10/09 14:43:08;;;;;;;5.07;2.80;;;;;;;;;;5034256;28;20420;-81
2023/10/09 14:45:37;;;;;;;3.47;2.53;;;;;;;;;;5032208;28;20480;-81
2023/10/09 14:48:03;;;;;;;9.77;2.70;;;;;;;;;;5034394;28;20436;-82
2023/10/09 14:50:30;;;;;;;6.30;3.00;;;;;;;;;;5033259;28;20476;-81
2023/10/09 14:53:01;;;;;;;5.73;3.40;;;;;;;;;;5033024;28;20483;-80
2023/10/09 14:55:31;;;;;;;8.97;3.77;;;;;;;;;;5034490;28;20472;-81
2023/10/09 14:57:58;;;;;;;8.60;2.83;;;;;;;;;;5034545;28;20429;-82
2023/10/09 15:00:26;;;;;;;9.40;3.47;;;;;;;;;;5032608;28;20461;-82
2023/10/09 15:02:52;;;;;;;6.30;3.47;;;;;;;;;;5032923;28;20464;-83
2023/10/09 15:05:19;;;;;;;12.30;4.23;;;;;;;;;;5033733;28;20472;-79
2023/10/09 15:07:45;;;;;;;10.33;3.10;;;;;;;;;;5034463;28;20535;-80
2023/10/09 15:10:15;;;;;;;7.33;3.13;;;;;;;;;;5033181;28;21006;-79
2023/10/09 15:12:42;;;;;;;7.97;3.27;;;;;;;;;;5034076;28;20515;-80
2023/10/09 15:15:13;;;;;;;11.57;3.53;;;;;;;;;;5031987;28;20572;-79
2023/10/09 15:17:43;;;;;;;6.30;2.87;;;;;;;;;;5032769;28;20429;-79
2023/10/09 15:20:13;;;;;;;3.00;2.03;;;;;;;;;;5033089;28;20547;-82
2023/10/09 15:22:39;;;;;;;8.30;2.90;;;;;;;;;;5033745;28;20525;-81
2023/10/09 15:25:06;;;;;;;4.70;2.63;;;;;;;;;;5031669;28;20472;-81
2023/10/09 15:27:34;;;;;;;6.53;2.13;;;;;;;;;;5035401;28;20965;-81
2023/10/09 15:30:01;;;;;;;5.03;2.30;;;;;;;;;;5036448;28;20464;-81
2023/10/09 15:32:27;;;;;;;3.93;2.10;;;;;;;;;;5036946;28;20480;-81
2023/10/09 15:34:56;;;;;;;3.87;2.30;;;;;;;;;;5036579;28;20476;-81
2023/10/09 15:37:22;;;;;;;5.10;2.50;;;;;;;;;;5036693;28;20963;-81
2023/10/09 15:39:49;;;;;;;2.73;2.10;;;;;;;;;;5036010;28;20841;-81
2023/10/09 15:42:16;;;;;;;3.70;2.33;;;;;;;;;;5037237;28;20441;-81
2023/10/09 15:44:47;;;;;;;9.80;2.47;;;;;;;;;;5033895;28;20475;-81
2023/10/09 15:47:15;;;;;;;7.20;2.07;;;;;;;;;;5036322;28;20433;-81
2023/10/09 15:49:43;;;;;;;7.03;2.30;;;;;;;;;;5032709;28;20464;-82